WBGRWBGG

Guest
Details From WBGR - Miri
To WBGG - Kuching Intl
Flight Number -
Tags generated
Created
Modified
Stats Distance 277 nm / 513 km
Max Altitude 30,000 ft / 9,144 m
Waypoints 4
Social Downloads 0
Likes 0
Share VATSIM

Download

Looking for another format? Having issues loading an existing format? Contact us
Advertisement - Login to hide

Notes

Basic altitude profile: - Ascent Rate: 2500ft/min - Ascent Speed: 250kts - Cruise Altitude: 35000ft - Cruise Speed: 420kts - Descent Rate: 1500ft/min - Descent Speed: 250kts Options: - Use NATs: yes - Use PACOTS: yes - Use low airways: yes - Use high airways: yes

Route

WBGR SARVO G580 PILAX WBGG

ID Type Via Altitude Latitude Longitude Leg Dist Tot Dist Heading (true) Name
O WBGR APT - 0 ft / 0 m 4.32207˚ 113.98681˚ - 0 nm - Miri
SARVO FIX - 30,000 ft / 9,144 m 3.44167˚ 112.83611˚ 86 nm 86 nm 233° / 232° -
PILAX FIX G580 (AWY-HI) 16,100 ft / 4,907 m 2.31889˚ 111.38528˚ 110 nm 196 nm 232° / 232° -
O WBGG APT - 0 ft / 0 m 1.48470˚ 110.34693˚ 79 nm 276 nm 231° / 231° Kuching Intl

Altitude Profile

Advertisement - Login to hide

Weather


0- 5 10 15 20 25 30 35+ Temperature / ° C

Clouds and Precipitation
Forecast for 2018-05-22 06:00 UTC. Updated 2 hours ago

Ground ~20,000 ft ~40,000 ft Winds

WBGR

Details ICAO WBGR (MYY)
Name Miri
Region Brunei and Malaysia
Timezone Asia/Kuching (UTC+8.0)
Stats Elevation 59 ft / 18 m (AMSL)
Location 4.322068° 113.986806°
Runways 1
Magnetic Variation 0.115° W

METAR

WBGR 220700Z VRB07KT 9999 FEW015CB SCT016 BKN300 32/25 Q1005

Decode

TAF

TAF WBGR 212300Z 2200/2300 VRB03KT 9999 SCT016 BECMG 2204/2206 25006KT BECMG 2212/2214 VRB03KT

Decode

Departure Runways

ID Width Length Bearing (true) Bearing (mag) Surface Threshold Offset Overrun Length
02 197 ft / 60 m 9,040 ft / 2,755 m 24.85° 24.96° Asphalt 0 ft / 0 m 200 ft / 61 m
20 197 ft / 60 m 9,040 ft / 2,755 m 204.85° 204.96° Asphalt 0 ft / 0 m 200 ft / 61 m

WBGG

Details ICAO WBGG (KCH)
Name Kuching Intl
Region Brunei and Malaysia
Timezone Asia/Kuching (UTC+8.0)
Stats Elevation 89 ft / 27 m (AMSL)
Location 1.484698° 110.346932°
Runways 1
Magnetic Variation 0.334° E

METAR

WBGG 220700Z VRB04KT 9999 FEW015CB SCT020 BKN300 33/26 Q1006 NOSIG

Decode

TAF

TAF WBGG 212300Z 2200/2300 VRB03KT 9999 SCT020 TEMPO 2207/2211 27006KT 3000 TSRA FEW015CB

Decode

Destination Runways

ID Width Length Bearing (true) Bearing (mag) Surface Threshold Offset Overrun Length
07 151 ft / 46 m 8,012 ft / 2,442 m 68.26° 67.93° Asphalt 0 ft / 0 m 0 ft / 0 m
25 151 ft / 46 m 8,012 ft / 2,442 m 248.26° 247.93° Asphalt 320 ft / 98 m 0 ft / 0 m

Approach Navaids

Runway Type Ident Frequency Range Bearing (true) Bearing (mag) Slope Elevation
25 Localiser IKG 110.30 MHz 18 nm / 33 km 248.23° 247.89° - 89 ft / 27 m (AMSL)
25 Glidescope IKG 110.30 MHz 10 nm / 19 km 248.26° 247.93° 3.00° 89 ft / 27 m (AMSL)
25 DME IKG 110.30 MHz 18 nm / 33 km - - - 89 ft / 27 m (AMSL)

Popular Alternatives